createdAt,value
2017-12-31T00:00:25.726Z,0
2017-12-31T00:01:26.329Z,0
2017-12-31T00:02:26.938Z,0
2017-12-31T00:03:27.545Z,0
2017-12-31T00:04:28.148Z,0
2017-12-31T00:05:28.750Z,0
2017-12-31T00:06:29.370Z,0
2017-12-31T00:07:29.955Z,0
2017-12-31T00:08:30.563Z,0
2017-12-31T00:09:31.178Z,0
2017-12-31T00:10:31.779Z,0
2017-12-31T00:11:32.394Z,0
2017-12-31T00:12:33.005Z,0
2017-12-31T00:13:33.606Z,0
2017-12-31T00:14:34.215Z,0
2017-12-31T00:15:34.825Z,0
2017-12-31T00:16:35.430Z,0
2017-12-31T00:17:36.030Z,0
2017-12-31T00:18:36.631Z,0
2017-12-31T00:19:37.230Z,0
2017-12-31T00:20:37.852Z,0
2017-12-31T00:21:38.465Z,0
2017-12-31T00:22:39.077Z,0
2017-12-31T00:23:39.680Z,0
2017-12-31T00:24:40.276Z,0
2017-12-31T00:25:40.890Z,0
2017-12-31T00:26:41.497Z,0
2017-12-31T00:27:42.100Z,0
2017-12-31T00:28:42.713Z,0
2017-12-31T00:29:43.334Z,0
2017-12-31T00:30:43.949Z,0
2017-12-31T00:31:44.546Z,0
2017-12-31T00:32:45.154Z,0
2017-12-31T00:33:45.769Z,0
2017-12-31T00:34:46.375Z,0
2017-12-31T00:35:46.978Z,0
2017-12-31T00:36:47.585Z,0
2017-12-31T00:37:48.200Z,0
2017-12-31T00:38:48.801Z,0
2017-12-31T00:39:49.396Z,0
2017-12-31T00:40:49.996Z,0
2017-12-31T00:41:50.599Z,0
2017-12-31T00:42:51.198Z,0
2017-12-31T00:43:51.803Z,0
2017-12-31T00:44:52.400Z,0
2017-12-31T00:45:53.002Z,0
2017-12-31T00:46:53.614Z,0
2017-12-31T00:47:54.212Z,0
2017-12-31T00:48:54.822Z,0
2017-12-31T00:49:55.421Z,0
2017-12-31T00:50:56.040Z,0
2017-12-31T00:51:56.642Z,0
2017-12-31T00:52:57.249Z,0
2017-12-31T00:53:57.858Z,0
2017-12-31T00:54:58.459Z,0
2017-12-31T00:55:59.064Z,0
2017-12-31T00:56:59.662Z,0
2017-12-31T00:58:00.276Z,0
2017-12-31T00:59:00.882Z,0
2017-12-31T01:00:01.490Z,0
2017-12-31T01:01:46.312Z,0
2017-12-31T01:02:46.919Z,0
2017-12-31T01:03:47.526Z,0
2017-12-31T01:04:48.119Z,0
2017-12-31T01:05:48.722Z,0
2017-12-31T01:06:49.329Z,0
2017-12-31T01:07:49.923Z,0
2017-12-31T01:08:50.517Z,0
2017-12-31T01:09:51.116Z,0
2017-12-31T01:10:51.727Z,0
2017-12-31T01:11:52.343Z,0
2017-12-31T01:12:52.958Z,0
2017-12-31T01:13:53.570Z,0
2017-12-31T01:14:54.187Z,0
2017-12-31T01:15:54.802Z,0
2017-12-31T01:16:55.428Z,0
2017-12-31T01:17:56.011Z,0
2017-12-31T01:18:56.612Z,0
2017-12-31T01:19:57.214Z,0
2017-12-31T01:20:57.817Z,0
2017-12-31T01:21:58.419Z,0
2017-12-31T01:22:59.029Z,0
2017-12-31T01:23:59.640Z,0
2017-12-31T01:25:00.243Z,0
2017-12-31T01:26:00.845Z,0
2017-12-31T01:27:01.448Z,0
2017-12-31T01:28:02.051Z,0
2017-12-31T01:29:02.647Z,0
2017-12-31T01:30:03.252Z,0
2017-12-31T01:31:03.862Z,0
2017-12-31T01:32:04.467Z,0
2017-12-31T01:33:05.074Z,0
2017-12-31T01:34:05.686Z,0
2017-12-31T01:35:06.299Z,0
2017-12-31T01:36:06.915Z,0
2017-12-31T01:37:07.521Z,0
2017-12-31T01:38:08.120Z,0
2017-12-31T01:39:08.724Z,0
2017-12-31T01:40:09.328Z,0
2017-12-31T01:41:09.920Z,0
2017-12-31T01:42:10.512Z,0
2017-12-31T01:43:11.120Z,0
2017-12-31T01:44:11.733Z,0
2017-12-31T01:45:12.337Z,0
2017-12-31T01:46:12.934Z,0
2017-12-31T01:47:13.539Z,0
2017-12-31T01:48:14.156Z,0
2017-12-31T01:49:14.763Z,0
2017-12-31T01:50:15.355Z,0
2017-12-31T01:51:15.955Z,0
2017-12-31T01:52:16.563Z,0
2017-12-31T01:53:17.163Z,0
2017-12-31T01:54:17.770Z,0
2017-12-31T01:55:18.379Z,0
2017-12-31T01:56:18.970Z,0
2017-12-31T01:57:19.561Z,0
2017-12-31T01:58:20.154Z,0
2017-12-31T01:59:20.752Z,0
2017-12-31T02:00:21.350Z,0
2017-12-31T02:01:21.940Z,0
2017-12-31T02:02:22.531Z,0
2017-12-31T02:03:23.145Z,0
2017-12-31T02:04:23.748Z,0
2017-12-31T02:05:24.354Z,0
2017-12-31T02:06:24.950Z,0
2017-12-31T02:07:25.552Z,0
2017-12-31T02:08:26.153Z,0
2017-12-31T02:09:26.753Z,0
2017-12-31T02:10:27.349Z,0
2017-12-31T02:11:27.941Z,0
2017-12-31T02:12:28.546Z,0
2017-12-31T02:13:29.157Z,0
2017-12-31T02:14:29.761Z,0
2017-12-31T02:15:30.352Z,0
2017-12-31T02:16:30.961Z,0
2017-12-31T02:17:31.569Z,0
2017-12-31T02:18:32.174Z,0
2017-12-31T02:19:32.786Z,0
2017-12-31T02:20:33.382Z,0
2017-12-31T02:21:33.985Z,0
2017-12-31T02:22:34.583Z,0
2017-12-31T02:23:35.187Z,0
2017-12-31T02:24:35.796Z,0
2017-12-31T02:25:36.407Z,0
2017-12-31T02:26:37.012Z,0
2017-12-31T02:27:37.612Z,0
2017-12-31T02:28:38.220Z,0
2017-12-31T02:29:38.802Z,0
2017-12-31T02:30:39.412Z,0
2017-12-31T02:31:40.011Z,0
2017-12-31T02:32:40.618Z,0
2017-12-31T02:33:41.213Z,0
2017-12-31T02:34:41.802Z,0
2017-12-31T02:35:42.409Z,0
2017-12-31T02:36:43.017Z,0
2017-12-31T02:37:43.617Z,0
2017-12-31T02:38:44.207Z,0
2017-12-31T02:39:44.797Z,0
2017-12-31T02:40:45.392Z,0
2017-12-31T02:41:45.997Z,0
2017-12-31T02:42:46.601Z,0
2017-12-31T02:43:47.214Z,0
2017-12-31T02:44:47.824Z,0
2017-12-31T02:45:48.422Z,0
2017-12-31T02:46:49.031Z,0
2017-12-31T02:47:49.638Z,0
2017-12-31T02:48:50.243Z,0
2017-12-31T02:49:50.851Z,0
2017-12-31T02:50:51.442Z,0
2017-12-31T02:51:52.050Z,0
2017-12-31T02:52:52.644Z,0
2017-12-31T02:53:53.243Z,0
2017-12-31T02:54:53.850Z,0
2017-12-31T02:55:54.450Z,0
2017-12-31T02:56:55.045Z,0
2017-12-31T02:57:55.647Z,0
2017-12-31T02:58:56.247Z,0
2017-12-31T02:59:56.842Z,0
2017-12-31T03:00:57.440Z,0
2017-12-31T03:01:58.057Z,0
2017-12-31T03:02:58.650Z,0
2017-12-31T03:03:59.256Z,0
2017-12-31T03:04:59.864Z,0
2017-12-31T03:06:00.473Z,0
2017-12-31T03:07:01.079Z,0
2017-12-31T03:08:01.682Z,0
2017-12-31T03:09:02.274Z,0
2017-12-31T03:10:02.881Z,0
2017-12-31T03:11:03.479Z,0
2017-12-31T03:12:04.080Z,0
2017-12-31T03:13:04.689Z,0
2017-12-31T03:14:05.298Z,0
2017-12-31T03:15:05.898Z,0
2017-12-31T03:16:06.499Z,0
2017-12-31T03:17:07.109Z,0
2017-12-31T03:18:07.706Z,0
2017-12-31T03:19:08.304Z,0
2017-12-31T03:20:08.901Z,0
2017-12-31T03:21:09.507Z,0
2017-12-31T03:22:10.107Z,0
2017-12-31T03:23:10.726Z,0
2017-12-31T03:24:11.341Z,0
2017-12-31T03:25:11.953Z,0
2017-12-31T03:26:12.565Z,0
2017-12-31T03:27:13.161Z,0
2017-12-31T03:28:13.771Z,0
2017-12-31T03:29:14.382Z,0
2017-12-31T03:30:14.985Z,0
2017-12-31T03:31:15.589Z,0
2017-12-31T03:32:16.179Z,0
2017-12-31T03:33:16.782Z,0
2017-12-31T03:34:17.392Z,0
2017-12-31T03:35:17.991Z,0
2017-12-31T03:36:18.593Z,0
2017-12-31T03:37:19.200Z,0
2017-12-31T03:38:19.809Z,0
2017-12-31T03:39:20.407Z,0
2017-12-31T03:40:21.017Z,0
2017-12-31T03:41:21.624Z,0
2017-12-31T03:42:22.246Z,0
2017-12-31T03:43:22.862Z,0
2017-12-31T03:44:23.477Z,0
2017-12-31T03:45:24.087Z,0
2017-12-31T03:46:24.694Z,0
2017-12-31T03:47:25.287Z,0
2017-12-31T03:48:25.890Z,0
2017-12-31T03:49:26.488Z,0
2017-12-31T03:50:27.093Z,0
2017-12-31T03:51:27.709Z,0
2017-12-31T03:52:28.324Z,0
2017-12-31T03:53:28.936Z,0
2017-12-31T03:54:29.544Z,0
2017-12-31T03:55:30.144Z,0
2017-12-31T03:56:30.744Z,0
2017-12-31T03:57:31.351Z,0
2017-12-31T03:58:31.946Z,0
2017-12-31T03:59:32.545Z,0
2017-12-31T04:00:33.157Z,0
2017-12-31T04:01:33.758Z,0
2017-12-31T04:02:34.365Z,0
2017-12-31T04:03:34.968Z,0
2017-12-31T04:04:35.579Z,0
2017-12-31T04:05:36.172Z,0
2017-12-31T04:06:36.781Z,0
2017-12-31T04:07:37.395Z,0
2017-12-31T04:08:37.986Z,0
2017-12-31T04:09:38.597Z,0
2017-12-31T04:10:39.188Z,0
2017-12-31T04:11:39.790Z,0
2017-12-31T04:12:40.385Z,0
2017-12-31T04:13:40.989Z,0
2017-12-31T04:14:41.599Z,0
2017-12-31T04:15:42.194Z,0
2017-12-31T04:16:42.797Z,0
2017-12-31T04:17:43.401Z,0
2017-12-31T04:18:44.016Z,0
2017-12-31T04:19:44.628Z,0
2017-12-31T04:20:45.226Z,0
2017-12-31T04:21:45.833Z,0
2017-12-31T04:22:46.451Z,0
2017-12-31T04:23:47.049Z,0
2017-12-31T04:24:47.646Z,0
2017-12-31T04:25:48.258Z,0
2017-12-31T04:26:48.859Z,0
2017-12-31T04:27:49.464Z,0
2017-12-31T04:28:50.073Z,0
2017-12-31T04:29:50.680Z,0
2017-12-31T04:30:51.289Z,0
2017-12-31T04:31:51.890Z,0
2017-12-31T04:32:52.490Z,0
2017-12-31T04:33:53.093Z,0
2017-12-31T04:34:53.695Z,0
2017-12-31T04:35:54.291Z,0
2017-12-31T04:36:54.891Z,0
2017-12-31T04:37:55.499Z,0
2017-12-31T04:38:56.110Z,0
2017-12-31T04:39:56.719Z,0
2017-12-31T04:40:57.321Z,0
2017-12-31T04:41:57.922Z,0
2017-12-31T04:42:58.529Z,0
2017-12-31T04:43:59.124Z,0
2017-12-31T04:44:59.737Z,0
2017-12-31T04:46:00.345Z,0
2017-12-31T04:47:00.944Z,0
2017-12-31T04:48:01.546Z,0
2017-12-31T04:49:02.146Z,0
2017-12-31T04:50:02.747Z,0
2017-12-31T04:51:03.359Z,0
2017-12-31T04:52:03.969Z,0
2017-12-31T04:53:04.581Z,0
2017-12-31T04:54:05.186Z,0
2017-12-31T04:55:05.790Z,0
2017-12-31T04:56:06.406Z,0
2017-12-31T04:57:07.003Z,0
2017-12-31T04:58:07.606Z,0
2017-12-31T04:59:08.216Z,0
2017-12-31T05:00:08.825Z,0
2017-12-31T05:01:09.425Z,0
2017-12-31T05:02:10.021Z,0
2017-12-31T05:03:10.618Z,0
2017-12-31T05:04:11.209Z,0
2017-12-31T05:05:11.800Z,0
2017-12-31T05:06:12.413Z,0
2017-12-31T05:07:13.026Z,0
2017-12-31T05:08:13.637Z,0
2017-12-31T05:09:14.241Z,0
2017-12-31T05:10:14.834Z,0
2017-12-31T05:11:15.445Z,0
2017-12-31T05:12:16.037Z,0
2017-12-31T05:13:16.631Z,0
2017-12-31T05:14:17.233Z,0
2017-12-31T05:15:17.836Z,0
2017-12-31T05:16:18.439Z,0
2017-12-31T05:17:19.049Z,0
2017-12-31T05:18:19.650Z,0
2017-12-31T05:19:20.256Z,0
2017-12-31T05:20:20.860Z,0
2017-12-31T05:21:21.462Z,0
2017-12-31T05:22:22.063Z,0
2017-12-31T05:23:22.665Z,0
2017-12-31T05:24:23.272Z,0
2017-12-31T05:25:23.876Z,0
2017-12-31T05:26:24.483Z,0
2017-12-31T05:27:25.101Z,0
2017-12-31T05:28:25.695Z,0
2017-12-31T05:29:26.304Z,0
2017-12-31T05:30:26.903Z,0
2017-12-31T05:31:27.519Z,0
2017-12-31T05:32:28.128Z,0
2017-12-31T05:33:28.735Z,0
2017-12-31T05:34:29.332Z,0
2017-12-31T05:35:29.943Z,0
2017-12-31T05:36:30.548Z,0
2017-12-31T05:37:31.152Z,0
2017-12-31T05:38:31.757Z,0
2017-12-31T05:39:32.367Z,0
2017-12-31T05:40:32.977Z,0
2017-12-31T05:41:33.592Z,0
2017-12-31T05:42:34.207Z,0
2017-12-31T05:43:34.807Z,0
2017-12-31T05:44:35.417Z,0
2017-12-31T05:45:36.032Z,0
2017-12-31T05:46:36.639Z,0
2017-12-31T05:47:37.243Z,0
2017-12-31T05:48:37.851Z,0
2017-12-31T05:49:38.458Z,0
2017-12-31T05:50:39.060Z,0
2017-12-31T05:51:39.675Z,0
2017-12-31T05:52:40.275Z,0
2017-12-31T05:53:40.883Z,0
2017-12-31T05:54:41.491Z,0
2017-12-31T05:55:42.094Z,0
2017-12-31T05:56:42.698Z,0
2017-12-31T05:57:43.299Z,0
2017-12-31T05:58:43.901Z,0
2017-12-31T05:59:44.509Z,0
2017-12-31T06:00:45.112Z,0
2017-12-31T06:01:45.720Z,0
2017-12-31T06:02:46.329Z,0
2017-12-31T06:03:46.941Z,0
2017-12-31T06:04:47.540Z,0
2017-12-31T06:05:48.143Z,0
2017-12-31T06:06:48.753Z,0
2017-12-31T06:07:49.350Z,0
2017-12-31T06:08:49.948Z,0
2017-12-31T06:09:50.547Z,0
2017-12-31T06:10:51.141Z,0
2017-12-31T06:11:51.752Z,0
2017-12-31T06:12:52.357Z,0
2017-12-31T06:13:52.964Z,0
2017-12-31T06:14:53.564Z,0
2017-12-31T06:15:54.170Z,0
2017-12-31T06:16:54.765Z,0
2017-12-31T06:17:55.364Z,0
2017-12-31T06:18:55.966Z,0
2017-12-31T06:19:56.574Z,0
2017-12-31T06:20:57.171Z,0
2017-12-31T06:21:57.788Z,0
2017-12-31T06:22:58.398Z,0
2017-12-31T06:23:58.996Z,0
2017-12-31T06:24:59.594Z,0
2017-12-31T06:26:00.203Z,0
2017-12-31T06:27:00.809Z,0
2017-12-31T06:28:01.411Z,0
2017-12-31T06:29:02.017Z,0
2017-12-31T06:30:02.619Z,0
2017-12-31T06:31:03.230Z,0
2017-12-31T06:32:03.834Z,0
2017-12-31T06:33:04.430Z,0
2017-12-31T06:34:05.032Z,0
2017-12-31T06:35:05.631Z,0
2017-12-31T06:36:06.239Z,0
2017-12-31T06:37:06.846Z,0
2017-12-31T06:38:07.450Z,0
2017-12-31T06:39:08.053Z,0
2017-12-31T06:40:08.656Z,0
2017-12-31T06:41:09.249Z,0
2017-12-31T06:42:09.856Z,0
2017-12-31T06:43:10.470Z,0
2017-12-31T06:44:11.070Z,0
2017-12-31T06:45:11.679Z,0
2017-12-31T06:46:12.290Z,0
2017-12-31T06:47:12.886Z,0
2017-12-31T06:48:13.475Z,0
2017-12-31T06:49:14.084Z,0
2017-12-31T06:50:14.690Z,0
2017-12-31T06:51:15.295Z,0
2017-12-31T06:52:15.889Z,0
2017-12-31T06:53:16.490Z,0
2017-12-31T06:54:17.089Z,0
2017-12-31T06:55:17.685Z,0
2017-12-31T06:56:18.285Z,0
2017-12-31T06:57:18.886Z,0
2017-12-31T06:58:19.488Z,0
2017-12-31T06:59:20.079Z,0
2017-12-31T07:00:20.689Z,0
2017-12-31T07:01:21.275Z,0
2017-12-31T07:02:21.869Z,0
2017-12-31T07:03:22.475Z,0
2017-12-31T07:04:23.081Z,0
2017-12-31T07:05:23.690Z,0
2017-12-31T07:06:24.302Z,0
2017-12-31T07:07:24.918Z,0
2017-12-31T07:08:25.527Z,0
2017-12-31T07:09:26.121Z,0
2017-12-31T07:10:26.726Z,0
2017-12-31T07:11:27.328Z,0
2017-12-31T07:12:27.941Z,0
2017-12-31T07:13:28.550Z,0
2017-12-31T07:14:29.146Z,0
2017-12-31T07:15:29.748Z,0
2017-12-31T07:16:30.342Z,0
2017-12-31T07:17:30.942Z,0
2017-12-31T07:18:31.552Z,0
2017-12-31T07:19:32.168Z,0
2017-12-31T07:20:32.780Z,0
2017-12-31T07:21:33.386Z,0
2017-12-31T07:22:34.029Z,5
2017-12-31T07:23:34.627Z,5
2017-12-31T07:24:35.232Z,5
2017-12-31T07:25:35.850Z,5
2017-12-31T07:26:36.459Z,10
2017-12-31T07:27:37.058Z,10
2017-12-31T07:28:37.668Z,10
2017-12-31T07:29:38.290Z,10
2017-12-31T07:30:38.905Z,15
2017-12-31T07:31:39.525Z,15
2017-12-31T07:32:40.132Z,15
2017-12-31T07:33:40.751Z,15
2017-12-31T07:34:41.375Z,15
2017-12-31T07:35:41.984Z,15
2017-12-31T07:36:42.591Z,15
2017-12-31T07:37:43.197Z,15
2017-12-31T07:38:43.802Z,15
2017-12-31T07:39:44.410Z,15
2017-12-31T07:40:45.025Z,15
2017-12-31T07:41:45.627Z,15
2017-12-31T07:42:46.240Z,20
2017-12-31T07:43:46.848Z,20
2017-12-31T07:44:47.450Z,20
2017-12-31T07:45:48.052Z,20
2017-12-31T07:46:48.649Z,25
2017-12-31T07:47:49.254Z,25
2017-12-31T07:48:49.862Z,30
2017-12-31T07:49:50.470Z,30
2017-12-31T07:50:51.072Z,30
2017-12-31T07:51:51.709Z,30
2017-12-31T07:52:52.279Z,35
2017-12-31T07:53:52.892Z,35
2017-12-31T07:54:53.488Z,40
2017-12-31T07:55:54.101Z,40
2017-12-31T07:56:54.706Z,45
2017-12-31T07:57:55.320Z,45
2017-12-31T07:58:55.918Z,50
2017-12-31T07:59:56.531Z,50
2017-12-31T08:00:57.140Z,55
2017-12-31T08:01:57.736Z,55
2017-12-31T08:02:58.350Z,50
2017-12-31T08:03:58.954Z,50
2017-12-31T08:04:59.559Z,50
2017-12-31T08:06:00.166Z,55
2017-12-31T08:07:00.781Z,55
2017-12-31T08:08:01.404Z,60
2017-12-31T08:09:02.009Z,60
2017-12-31T08:10:02.615Z,55
2017-12-31T08:11:03.220Z,55
2017-12-31T08:12:03.827Z,60
2017-12-31T08:13:04.449Z,65
2017-12-31T08:14:05.062Z,65
2017-12-31T08:15:05.674Z,70
2017-12-31T08:16:06.282Z,75
2017-12-31T08:17:06.880Z,80
2017-12-31T08:18:07.487Z,85
2017-12-31T08:19:08.105Z,95
2017-12-31T08:20:08.702Z,110
2017-12-31T08:21:09.317Z,120
2017-12-31T08:22:09.926Z,125
2017-12-31T08:23:10.535Z,130
2017-12-31T08:24:11.148Z,130
2017-12-31T08:25:11.745Z,140
2017-12-31T08:26:12.353Z,150
2017-12-31T08:27:12.964Z,145
2017-12-31T08:28:13.571Z,115
2017-12-31T08:29:14.171Z,95
2017-12-31T08:30:14.780Z,80
2017-12-31T08:31:15.389Z,70
2017-12-31T08:32:15.995Z,70
2017-12-31T08:33:16.614Z,70
2017-12-31T08:34:17.231Z,75
2017-12-31T08:35:17.851Z,85
2017-12-31T08:36:18.467Z,100
2017-12-31T08:37:19.081Z,110
2017-12-31T08:38:19.695Z,110
2017-12-31T08:39:20.376Z,100
2017-12-31T08:40:20.906Z,100
2017-12-31T08:41:21.515Z,95
2017-12-31T08:42:22.128Z,95
2017-12-31T08:43:22.742Z,95
2017-12-31T08:44:23.342Z,105
2017-12-31T08:45:23.963Z,120
2017-12-31T08:46:24.578Z,120
2017-12-31T08:47:25.180Z,110
2017-12-31T08:48:25.796Z,105
2017-12-31T08:49:26.425Z,100
2017-12-31T08:50:27.037Z,105
2017-12-31T08:51:27.647Z,110
2017-12-31T08:52:28.263Z,115
2017-12-31T08:53:28.877Z,110
2017-12-31T08:54:29.474Z,120
2017-12-31T08:55:30.077Z,125
2017-12-31T08:56:30.689Z,130
2017-12-31T08:57:31.305Z,130
2017-12-31T08:58:31.920Z,125
2017-12-31T08:59:32.541Z,120
2017-12-31T09:00:33.164Z,110
2017-12-31T09:01:33.779Z,95
2017-12-31T09:02:34.376Z,105
2017-12-31T09:03:34.988Z,105
2017-12-31T09:04:35.602Z,120
2017-12-31T09:05:36.213Z,120
2017-12-31T09:06:36.821Z,85
2017-12-31T09:07:37.440Z,65
2017-12-31T09:08:38.054Z,65
2017-12-31T09:09:38.662Z,55
2017-12-31T09:10:39.261Z,85
2017-12-31T09:11:39.866Z,90
2017-12-31T09:12:40.469Z,75
2017-12-31T09:13:41.081Z,70
2017-12-31T09:14:41.683Z,65
2017-12-31T09:15:42.297Z,55
2017-12-31T09:16:42.909Z,55
2017-12-31T09:17:43.506Z,75
2017-12-31T09:18:44.113Z,95
2017-12-31T09:19:44.727Z,100
2017-12-31T09:20:45.342Z,115
2017-12-31T09:21:45.946Z,145
2017-12-31T09:22:46.554Z,175
2017-12-31T09:23:47.167Z,180
2017-12-31T09:24:47.773Z,210
2017-12-31T09:25:48.392Z,275
2017-12-31T09:26:49.006Z,300
2017-12-31T09:27:49.619Z,320
2017-12-31T09:28:50.228Z,320
2017-12-31T09:29:50.833Z,305
2017-12-31T09:30:51.452Z,280
2017-12-31T09:31:52.051Z,245
2017-12-31T09:32:52.660Z,280
2017-12-31T09:33:53.270Z,270
2017-12-31T09:34:53.878Z,280
2017-12-31T09:35:54.496Z,240
2017-12-31T09:36:55.112Z,210
2017-12-31T09:37:55.723Z,220
2017-12-31T09:38:56.329Z,250
2017-12-31T09:39:56.940Z,250
2017-12-31T09:40:57.561Z,235
2017-12-31T09:41:58.177Z,275
2017-12-31T09:42:58.785Z,280
2017-12-31T09:43:59.394Z,255
2017-12-31T09:45:00.008Z,190
2017-12-31T09:46:00.620Z,195
2017-12-31T09:47:01.250Z,175
2017-12-31T09:48:01.861Z,190
2017-12-31T09:49:02.470Z,245
2017-12-31T09:50:03.080Z,255
2017-12-31T09:51:03.694Z,245
2017-12-31T09:52:04.315Z,255
2017-12-31T09:53:04.934Z,280
2017-12-31T09:54:05.543Z,240
2017-12-31T09:55:06.155Z,230
2017-12-31T09:56:06.758Z,225
2017-12-31T09:57:07.370Z,250
2017-12-31T09:58:07.989Z,260
2017-12-31T09:59:08.607Z,255
2017-12-31T10:00:09.206Z,250
2017-12-31T10:01:09.822Z,250
2017-12-31T10:02:10.421Z,270
2017-12-31T10:03:11.038Z,245
2017-12-31T10:04:11.651Z,205
2017-12-31T10:05:12.263Z,205
2017-12-31T10:06:12.864Z,230
2017-12-31T10:07:13.471Z,295
2017-12-31T10:08:14.075Z,305
2017-12-31T10:09:14.680Z,280
2017-12-31T10:10:15.290Z,275
2017-12-31T10:11:15.898Z,300
2017-12-31T10:12:16.523Z,275
2017-12-31T10:13:17.129Z,285
2017-12-31T10:14:17.741Z,295
2017-12-31T10:15:18.361Z,285
2017-12-31T10:16:18.985Z,300
2017-12-31T10:17:19.600Z,300
2017-12-31T10:18:20.200Z,305
2017-12-31T10:19:20.805Z,315
2017-12-31T10:20:21.415Z,290
2017-12-31T10:21:22.025Z,285
2017-12-31T10:22:22.631Z,275
2017-12-31T10:23:23.244Z,290
2017-12-31T10:24:23.851Z,280
2017-12-31T10:25:24.451Z,270
2017-12-31T10:26:25.060Z,285
2017-12-31T10:27:25.674Z,295
2017-12-31T10:28:26.278Z,325
2017-12-31T10:29:26.881Z,310
2017-12-31T10:30:27.497Z,345
2017-12-31T10:31:28.106Z,345
2017-12-31T10:32:28.717Z,310
2017-12-31T10:33:29.320Z,305
2017-12-31T10:34:29.929Z,280
2017-12-31T10:35:30.539Z,275
2017-12-31T10:36:31.146Z,305
2017-12-31T10:37:31.764Z,320
2017-12-31T10:38:32.365Z,320
2017-12-31T10:39:32.965Z,315
2017-12-31T10:40:33.575Z,310
2017-12-31T10:41:34.183Z,310
2017-12-31T10:42:34.812Z,285
2017-12-31T10:43:35.428Z,250
2017-12-31T10:44:36.041Z,265
2017-12-31T10:45:36.663Z,305
2017-12-31T10:46:37.268Z,305
2017-12-31T10:47:37.871Z,300
2017-12-31T10:48:38.486Z,320
2017-12-31T10:49:39.105Z,330
2017-12-31T10:50:39.725Z,335
2017-12-31T10:51:40.339Z,355
2017-12-31T10:52:40.951Z,375
2017-12-31T10:53:41.562Z,415
2017-12-31T10:54:42.169Z,400
2017-12-31T10:55:42.796Z,365
2017-12-31T10:56:43.406Z,345
2017-12-31T10:57:44.006Z,355
2017-12-31T10:58:44.618Z,375
2017-12-31T10:59:45.229Z,400
2017-12-31T11:00:45.840Z,370
2017-12-31T11:01:46.460Z,370
2017-12-31T11:02:47.074Z,365
2017-12-31T11:03:47.684Z,370
2017-12-31T11:04:48.297Z,365
2017-12-31T11:05:48.909Z,385
2017-12-31T11:06:49.518Z,375
2017-12-31T11:07:50.131Z,390
2017-12-31T11:08:50.742Z,405
2017-12-31T11:09:51.348Z,455
2017-12-31T11:10:51.957Z,445
2017-12-31T11:11:52.569Z,415
2017-12-31T11:12:53.172Z,400
2017-12-31T11:13:53.789Z,405
2017-12-31T11:14:54.407Z,455
2017-12-31T11:15:55.020Z,490
2017-12-31T11:16:55.629Z,415
2017-12-31T11:17:56.245Z,440
2017-12-31T11:18:56.853Z,445
2017-12-31T11:19:57.462Z,455
2017-12-31T11:20:58.100Z,395
2017-12-31T11:21:58.708Z,385
2017-12-31T11:22:59.309Z,420
2017-12-31T11:23:59.934Z,425
2017-12-31T11:25:00.556Z,445
2017-12-31T11:26:01.161Z,485
2017-12-31T11:27:01.789Z,435
2017-12-31T11:28:02.409Z,430
2017-12-31T11:29:03.019Z,425
2017-12-31T11:30:03.638Z,435
2017-12-31T11:31:04.255Z,470
2017-12-31T11:32:04.870Z,480
2017-12-31T11:33:05.480Z,465
2017-12-31T11:34:06.102Z,500
2017-12-31T11:35:06.717Z,470
2017-12-31T11:36:07.328Z,480
2017-12-31T11:37:07.944Z,470
2017-12-31T11:38:08.547Z,450
2017-12-31T11:39:09.153Z,460
2017-12-31T11:40:09.759Z,455
2017-12-31T11:41:10.378Z,440
2017-12-31T11:42:10.983Z,460
2017-12-31T11:43:11.596Z,455
2017-12-31T11:44:12.211Z,455
2017-12-31T11:45:12.822Z,555
2017-12-31T11:46:13.440Z,535
2017-12-31T11:47:14.052Z,450
2017-12-31T11:48:14.662Z,365
2017-12-31T11:49:15.274Z,345
2017-12-31T11:50:15.888Z,395
2017-12-31T11:51:16.499Z,380
2017-12-31T11:52:17.117Z,385
2017-12-31T11:53:17.727Z,385
2017-12-31T11:54:18.359Z,390
2017-12-31T11:55:18.978Z,390
2017-12-31T11:56:19.586Z,355
2017-12-31T11:57:20.199Z,330
2017-12-31T11:58:20.809Z,300
2017-12-31T11:59:21.415Z,260
2017-12-31T12:00:22.027Z,245
2017-12-31T12:01:22.635Z,320
2017-12-31T12:02:23.258Z,365
2017-12-31T12:03:23.873Z,295
2017-12-31T12:04:24.473Z,330
2017-12-31T12:05:25.092Z,310
2017-12-31T12:06:25.709Z,380
2017-12-31T12:07:26.325Z,370
2017-12-31T12:08:26.930Z,420
2017-12-31T12:09:27.545Z,425
2017-12-31T12:10:28.163Z,415
2017-12-31T12:11:28.779Z,380
2017-12-31T12:12:29.706Z,375
2017-12-31T12:13:30.301Z,365
2017-12-31T12:14:30.922Z,350
2017-12-31T12:15:31.542Z,335
2017-12-31T12:16:32.151Z,315
2017-12-31T12:17:32.767Z,335
2017-12-31T12:18:33.384Z,335
2017-12-31T12:19:34.008Z,335
2017-12-31T12:20:34.614Z,325
2017-12-31T12:21:35.227Z,340
2017-12-31T12:22:35.830Z,330
2017-12-31T12:23:36.439Z,325
2017-12-31T12:24:37.056Z,330
2017-12-31T12:25:37.670Z,320
2017-12-31T12:26:38.271Z,310
2017-12-31T12:27:38.880Z,315
2017-12-31T12:28:39.504Z,315
2017-12-31T12:29:40.128Z,315
2017-12-31T12:30:40.736Z,320
2017-12-31T12:31:41.349Z,365
2017-12-31T12:32:41.958Z,355
2017-12-31T12:33:42.575Z,365
2017-12-31T12:34:43.205Z,365
2017-12-31T12:35:43.804Z,365
2017-12-31T12:36:44.414Z,365
2017-12-31T12:37:45.019Z,380
2017-12-31T12:38:45.696Z,375
2017-12-31T12:39:46.251Z,375
2017-12-31T12:40:46.861Z,380
2017-12-31T12:41:47.471Z,385
2017-12-31T12:42:48.096Z,390
2017-12-31T12:43:48.721Z,390
2017-12-31T12:44:49.324Z,385
2017-12-31T12:45:49.928Z,380
2017-12-31T12:46:50.545Z,380
2017-12-31T12:47:51.149Z,395
2017-12-31T12:48:51.754Z,400
2017-12-31T12:49:52.366Z,425
2017-12-31T12:50:52.974Z,440
2017-12-31T12:51:53.575Z,455
2017-12-31T12:52:54.185Z,470
2017-12-31T12:53:54.810Z,470
2017-12-31T12:54:55.430Z,475
2017-12-31T12:55:56.045Z,485
2017-12-31T12:56:56.654Z,475
2017-12-31T12:57:57.265Z,460
2017-12-31T12:58:57.885Z,460
2017-12-31T12:59:58.493Z,450
2017-12-31T13:00:59.108Z,440
2017-12-31T13:01:59.727Z,430
2017-12-31T13:03:00.373Z,425
2017-12-31T13:04:00.977Z,425
2017-12-31T13:05:01.579Z,435
2017-12-31T13:06:02.190Z,430
2017-12-31T13:07:02.803Z,425
2017-12-31T13:08:03.422Z,410
2017-12-31T13:09:04.029Z,405
2017-12-31T13:10:04.665Z,405
2017-12-31T13:11:05.242Z,400
2017-12-31T13:12:05.853Z,395
2017-12-31T13:13:06.493Z,380
2017-12-31T13:14:07.118Z,355
2017-12-31T13:15:07.735Z,350
2017-12-31T13:16:08.342Z,345
2017-12-31T13:17:08.951Z,350
2017-12-31T13:18:09.581Z,355
2017-12-31T13:19:10.207Z,360
2017-12-31T13:20:10.844Z,360
2017-12-31T13:21:11.442Z,350
2017-12-31T13:22:12.130Z,350
2017-12-31T13:23:12.765Z,350
2017-12-31T13:24:13.377Z,350
2017-12-31T13:25:13.968Z,365
2017-12-31T13:26:14.578Z,360
2017-12-31T13:27:15.228Z,350
2017-12-31T13:28:15.845Z,350
2017-12-31T13:29:16.458Z,340
2017-12-31T13:30:17.079Z,340
2017-12-31T13:31:17.681Z,345
2017-12-31T13:32:18.330Z,330
2017-12-31T13:33:18.929Z,320
2017-12-31T13:34:19.541Z,310
2017-12-31T13:35:20.157Z,270
2017-12-31T13:36:20.779Z,215
2017-12-31T13:37:21.393Z,220
2017-12-31T13:38:22.029Z,280
2017-12-31T13:39:22.643Z,295
2017-12-31T13:40:23.267Z,280
2017-12-31T13:41:23.907Z,235
2017-12-31T13:42:24.496Z,195
2017-12-31T13:43:25.105Z,190
2017-12-31T13:44:25.717Z,200
2017-12-31T13:45:26.326Z,230
2017-12-31T13:46:26.937Z,230
2017-12-31T13:47:27.553Z,225
2017-12-31T13:48:28.158Z,245
2017-12-31T13:49:28.783Z,255
2017-12-31T13:50:29.394Z,250
2017-12-31T13:51:30.000Z,230
2017-12-31T13:52:30.622Z,225
2017-12-31T13:53:31.223Z,230
2017-12-31T13:54:31.834Z,210
2017-12-31T13:55:32.443Z,205
2017-12-31T13:56:33.062Z,200
2017-12-31T13:57:33.660Z,205
2017-12-31T13:58:34.262Z,210
2017-12-31T13:59:34.870Z,220
2017-12-31T14:00:35.475Z,220
2017-12-31T14:01:36.083Z,220
2017-12-31T14:02:36.689Z,215
2017-12-31T14:03:37.294Z,215
2017-12-31T14:04:37.911Z,210
2017-12-31T14:05:38.530Z,200
2017-12-31T14:06:39.145Z,195
2017-12-31T14:07:39.759Z,190
2017-12-31T14:08:40.369Z,190
2017-12-31T14:09:40.984Z,190
2017-12-31T14:10:41.591Z,190
2017-12-31T14:11:42.212Z,190
2017-12-31T14:12:42.819Z,190
2017-12-31T14:13:43.435Z,190
2017-12-31T14:14:44.036Z,185
2017-12-31T14:15:44.674Z,175
2017-12-31T14:16:45.246Z,145
2017-12-31T14:17:45.867Z,125
2017-12-31T14:18:46.498Z,120
2017-12-31T14:19:47.115Z,130
2017-12-31T14:20:47.734Z,140
2017-12-31T14:21:48.341Z,140
2017-12-31T14:22:48.963Z,130
2017-12-31T14:23:49.580Z,110
2017-12-31T14:24:50.185Z,95
2017-12-31T14:25:50.794Z,80
2017-12-31T14:26:51.405Z,95
2017-12-31T14:27:52.022Z,120
2017-12-31T14:28:52.637Z,110